sensor_id;sensor_type;location;lat;lon;timestamp;P1;durP1;ratioP1;P2;durP2;ratioP2
69321;SDS011;67799;51.974;4.612;2023-02-28T08:13:33;2.73;;;2.53;;
69321;SDS011;67799;51.974;4.612;2023-02-28T08:16:00;3.45;;;2.55;;
69321;SDS011;67799;51.974;4.612;2023-02-28T08:18:27;3.72;;;2.20;;
69321;SDS011;67799;51.974;4.612;2023-02-28T08:20:52;3.00;;;2.30;;
69321;SDS011;67799;51.974;4.612;2023-02-28T08:23:18;4.60;;;2.83;;
69321;SDS011;67799;51.974;4.612;2023-02-28T08:25:44;3.75;;;2.97;;
69321;SDS011;67799;51.974;4.612;2023-02-28T08:28:17;3.10;;;2.80;;
69321;SDS011;67799;51.974;4.612;2023-02-28T08:30:43;3.13;;;2.70;;
69321;SDS011;67799;51.974;4.612;2023-02-28T08:33:09;2.67;;;2.30;;
69321;SDS011;67799;51.974;4.612;2023-02-28T08:35:35;3.03;;;2.73;;
69321;SDS011;67799;51.974;4.612;2023-02-28T08:38:02;3.25;;;2.60;;
69321;SDS011;67799;51.974;4.612;2023-02-28T08:40:28;4.40;;;3.03;;
69321;SDS011;67799;51.974;4.612;2023-02-28T08:42:54;2.87;;;2.47;;
69321;SDS011;67799;51.974;4.612;2023-02-28T08:45:19;3.38;;;2.60;;
69321;SDS011;67799;51.974;4.612;2023-02-28T08:47:45;4.00;;;3.30;;
69321;SDS011;67799;51.974;4.612;2023-02-28T08:50:11;2.90;;;2.60;;
69321;SDS011;67799;51.974;4.612;2023-02-28T08:52:42;2.90;;;2.60;;
69321;SDS011;67799;51.974;4.612;2023-02-28T08:55:09;3.47;;;2.40;;
69321;SDS011;67799;51.974;4.612;2023-02-28T08:57:35;2.55;;;2.25;;
69321;SDS011;67799;51.974;4.612;2023-02-28T09:00:00;3.30;;;2.28;;
69321;SDS011;67799;51.974;4.612;2023-02-28T09:02:30;3.27;;;2.43;;
69321;SDS011;67799;51.974;4.612;2023-02-28T09:04:56;3.53;;;2.45;;
69321;SDS011;67799;51.974;4.612;2023-02-28T09:07:23;2.90;;;2.60;;
69321;SDS011;67799;51.974;4.612;2023-02-28T09:09:49;4.88;;;3.15;;
69321;SDS011;67799;51.974;4.612;2023-02-28T09:12:23;5.00;;;3.07;;
69321;SDS011;67799;51.974;4.612;2023-02-28T09:14:51;7.65;;;2.75;;
69321;SDS011;67799;51.974;4.612;2023-02-28T09:17:17;6.45;;;2.85;;
69321;SDS011;67799;51.974;4.612;2023-02-28T09:19:43;6.77;;;3.03;;
69321;SDS011;67799;51.974;4.612;2023-02-28T09:22:10;3.00;;;2.38;;
69321;SDS011;67799;51.974;4.612;2023-02-28T09:24:37;3.15;;;2.50;;
69321;SDS011;67799;51.974;4.612;2023-02-28T09:27:03;2.97;;;2.30;;
69321;SDS011;67799;51.974;4.612;2023-02-28T09:29:30;5.03;;;2.50;;
69321;SDS011;67799;51.974;4.612;2023-02-28T09:31:58;4.90;;;2.85;;
69321;SDS011;67799;51.974;4.612;2023-02-28T09:34:24;3.67;;;2.60;;
69321;SDS011;67799;51.974;4.612;2023-02-28T09:36:51;2.70;;;2.47;;
69321;SDS011;67799;51.974;4.612;2023-02-28T09:39:20;4.35;;;2.88;;
69321;SDS011;67799;51.974;4.612;2023-02-28T09:41:47;2.88;;;2.45;;
69321;SDS011;67799;51.974;4.612;2023-02-28T09:44:25;4.20;;;2.90;;
69321;SDS011;67799;51.974;4.612;2023-02-28T09:47:14;2.90;;;2.60;;
69321;SDS011;67799;51.974;4.612;2023-02-28T09:49:51;3.42;;;2.80;;
69321;SDS011;67799;51.974;4.612;2023-02-28T09:52:21;5.67;;;2.53;;
69321;SDS011;67799;51.974;4.612;2023-02-28T09:54:52;4.03;;;2.55;;
69321;SDS011;67799;51.974;4.612;2023-02-28T10:00:03;4.50;;;2.50;;
69321;SDS011;67799;51.974;4.612;2023-02-28T10:05:41;2.00;;;1.77;;
69321;SDS011;67799;51.974;4.612;2023-02-28T10:08:26;8.10;;;2.92;;
69321;SDS011;67799;51.974;4.612;2023-02-28T10:10:57;2.97;;;2.20;;
69321;SDS011;67799;51.974;4.612;2023-02-28T10:16:02;3.78;;;2.70;;
69321;SDS011;67799;51.974;4.612;2023-02-28T10:21:38;3.60;;;2.70;;
69321;SDS011;67799;51.974;4.612;2023-02-28T10:24:13;3.53;;;2.70;;
69321;SDS011;67799;51.974;4.612;2023-02-28T10:26:41;6.30;;;2.93;;
69321;SDS011;67799;51.974;4.612;2023-02-28T10:29:11;3.20;;;2.60;;
69321;SDS011;67799;51.974;4.612;2023-02-28T10:31:37;2.92;;;2.25;;
69321;SDS011;67799;51.974;4.612;2023-02-28T10:34:04;3.80;;;3.42;;
69321;SDS011;67799;51.974;4.612;2023-02-28T10:36:31;2.53;;;2.33;;
69321;SDS011;67799;51.974;4.612;2023-02-28T10:38:57;3.22;;;2.53;;
69321;SDS011;67799;51.974;4.612;2023-02-28T10:41:31;2.90;;;2.60;;
69321;SDS011;67799;51.974;4.612;2023-02-28T10:44:21;4.07;;;2.47;;
69321;SDS011;67799;51.974;4.612;2023-02-28T10:46:48;3.75;;;2.70;;
69321;SDS011;67799;51.974;4.612;2023-02-28T10:49:20;3.45;;;2.08;;
69321;SDS011;67799;51.974;4.612;2023-02-28T10:51:48;2.97;;;2.67;;
69321;SDS011;67799;51.974;4.612;2023-02-28T10:54:19;3.17;;;2.35;;
69321;SDS011;67799;51.974;4.612;2023-02-28T10:59:50;3.08;;;2.60;;
69321;SDS011;67799;51.974;4.612;2023-02-28T11:02:36;3.67;;;2.53;;
69321;SDS011;67799;51.974;4.612;2023-02-28T11:08:04;2.83;;;2.33;;
69321;SDS011;67799;51.974;4.612;2023-02-28T11:10:38;3.13;;;2.43;;
69321;SDS011;67799;51.974;4.612;2023-02-28T11:13:04;3.88;;;2.55;;
69321;SDS011;67799;51.974;4.612;2023-02-28T11:15:32;2.63;;;2.42;;
69321;SDS011;67799;51.974;4.612;2023-02-28T11:20:40;4.03;;;2.30;;
69321;SDS011;67799;51.974;4.612;2023-02-28T11:23:06;2.30;;;2.10;;
69321;SDS011;67799;51.974;4.612;2023-02-28T11:25:38;2.92;;;2.50;;
69321;SDS011;67799;51.974;4.612;2023-02-28T11:28:06;2.97;;;2.40;;
69321;SDS011;67799;51.974;4.612;2023-02-28T11:33:51;2.75;;;2.40;;
69321;SDS011;67799;51.974;4.612;2023-02-28T11:36:22;2.77;;;2.00;;
69321;SDS011;67799;51.974;4.612;2023-02-28T11:38:50;2.25;;;1.92;;
69321;SDS011;67799;51.974;4.612;2023-02-28T11:41:24;2.20;;;2.00;;
69321;SDS011;67799;51.974;4.612;2023-02-28T11:44:07;2.93;;;2.63;;
69321;SDS011;67799;51.974;4.612;2023-02-28T11:46:38;2.78;;;2.20;;
69321;SDS011;67799;51.974;4.612;2023-02-28T11:49:32;2.45;;;2.22;;
69321;SDS011;67799;51.974;4.612;2023-02-28T11:54:31;2.20;;;2.00;;
69321;SDS011;67799;51.974;4.612;2023-02-28T11:57:14;3.22;;;2.35;;
69321;SDS011;67799;51.974;4.612;2023-02-28T11:59:53;2.60;;;2.40;;
69321;SDS011;67799;51.974;4.612;2023-02-28T12:02:35;2.67;;;2.37;;
69321;SDS011;67799;51.974;4.612;2023-02-28T12:11:02;3.53;;;2.60;;
69321;SDS011;67799;51.974;4.612;2023-02-28T12:13:42;2.70;;;2.08;;
69321;SDS011;67799;51.974;4.612;2023-02-28T12:19:48;2.83;;;2.60;;
69321;SDS011;67799;51.974;4.612;2023-02-28T12:25:21;2.40;;;2.20;;
69321;SDS011;67799;51.974;4.612;2023-02-28T12:28:14;2.45;;;2.25;;
69321;SDS011;67799;51.974;4.612;2023-02-28T12:30:58;2.23;;;1.90;;
69321;SDS011;67799;51.974;4.612;2023-02-28T12:33:33;2.47;;;2.20;;
69321;SDS011;67799;51.974;4.612;2023-02-28T12:36:05;3.53;;;2.80;;
69321;SDS011;67799;51.974;4.612;2023-02-28T12:38:44;3.70;;;3.00;;
69321;SDS011;67799;51.974;4.612;2023-02-28T12:41:26;2.72;;;2.40;;
69321;SDS011;67799;51.974;4.612;2023-02-28T12:44:06;3.47;;;2.35;;
69321;SDS011;67799;51.974;4.612;2023-02-28T12:46:38;4.30;;;2.88;;
69321;SDS011;67799;51.974;4.612;2023-02-28T12:49:10;3.67;;;2.77;;
69321;SDS011;67799;51.974;4.612;2023-02-28T12:51:43;3.78;;;2.60;;
69321;SDS011;67799;51.974;4.612;2023-02-28T12:54:55;2.50;;;2.30;;
69321;SDS011;67799;51.974;4.612;2023-02-28T12:57:15;3.70;;;2.63;;
69321;SDS011;67799;51.974;4.612;2023-02-28T13:10:54;2.78;;;2.40;;
69321;SDS011;67799;51.974;4.612;2023-02-28T13:13:21;2.65;;;2.45;;
69321;SDS011;67799;51.974;4.612;2023-02-28T13:15:59;3.40;;;2.70;;
69321;SDS011;67799;51.974;4.612;2023-02-28T13:18:35;2.70;;;2.50;;
69321;SDS011;67799;51.974;4.612;2023-02-28T13:21:09;3.17;;;2.40;;
69321;SDS011;67799;51.974;4.612;2023-02-28T13:24:01;3.07;;;2.70;;
69321;SDS011;67799;51.974;4.612;2023-02-28T13:29:02;3.17;;;2.78;;
69321;SDS011;67799;51.974;4.612;2023-02-28T13:39:52;2.58;;;2.30;;
69321;SDS011;67799;51.974;4.612;2023-02-28T13:47:27;2.80;;;2.50;;
69321;SDS011;67799;51.974;4.612;2023-02-28T13:49:54;3.43;;;2.20;;
69321;SDS011;67799;51.974;4.612;2023-02-28T13:52:42;2.50;;;2.30;;
69321;SDS011;67799;51.974;4.612;2023-02-28T13:55:23;3.50;;;2.20;;
69321;SDS011;67799;51.974;4.612;2023-02-28T14:06:38;2.28;;;2.03;;
69321;SDS011;67799;51.974;4.612;2023-02-28T14:09:29;2.67;;;2.37;;
69321;SDS011;67799;51.974;4.612;2023-02-28T14:15:25;2.40;;;2.20;;
69321;SDS011;67799;51.974;4.612;2023-02-28T14:17:51;2.37;;;2.17;;
69321;SDS011;67799;51.974;4.612;2023-02-28T14:20:20;3.15;;;2.30;;
69321;SDS011;67799;51.974;4.612;2023-02-28T14:36:10;3.13;;;2.37;;
69321;SDS011;67799;51.974;4.612;2023-02-28T14:38:57;3.97;;;2.50;;
69321;SDS011;67799;51.974;4.612;2023-02-28T14:41:50;2.78;;;2.58;;
69321;SDS011;67799;51.974;4.612;2023-02-28T14:46:52;2.70;;;2.25;;
69321;SDS011;67799;51.974;4.612;2023-02-28T14:49:27;2.70;;;1.98;;
69321;SDS011;67799;51.974;4.612;2023-02-28T14:54:38;2.42;;;2.20;;
69321;SDS011;67799;51.974;4.612;2023-02-28T14:57:05;3.08;;;2.15;;
69321;SDS011;67799;51.974;4.612;2023-02-28T14:59:32;2.20;;;2.00;;
69321;SDS011;67799;51.974;4.612;2023-02-28T15:02:16;2.10;;;1.90;;
69321;SDS011;67799;51.974;4.612;2023-02-28T15:04:42;3.60;;;1.90;;
69321;SDS011;67799;51.974;4.612;2023-02-28T15:07:17;2.78;;;2.00;;
69321;SDS011;67799;51.974;4.612;2023-02-28T15:09:43;2.63;;;2.13;;
69321;SDS011;67799;51.974;4.612;2023-02-28T15:12:12;4.00;;;2.40;;
69321;SDS011;67799;51.974;4.612;2023-02-28T15:14:42;2.30;;;2.00;;
69321;SDS011;67799;51.974;4.612;2023-02-28T15:17:14;2.13;;;1.83;;
69321;SDS011;67799;51.974;4.612;2023-02-28T15:19:47;1.80;;;1.70;;
69321;SDS011;67799;51.974;4.612;2023-02-28T15:22:18;2.70;;;2.50;;
69321;SDS011;67799;51.974;4.612;2023-02-28T15:24:54;2.60;;;2.10;;
69321;SDS011;67799;51.974;4.612;2023-02-28T15:27:22;2.28;;;2.00;;
69321;SDS011;67799;51.974;4.612;2023-02-28T15:29:56;2.45;;;2.20;;
69321;SDS011;67799;51.974;4.612;2023-02-28T15:34:50;2.33;;;2.10;;
69321;SDS011;67799;51.974;4.612;2023-02-28T15:42:38;2.60;;;2.30;;
69321;SDS011;67799;51.974;4.612;2023-02-28T15:45:04;2.90;;;2.17;;
69321;SDS011;67799;51.974;4.612;2023-02-28T15:47:30;3.47;;;2.25;;
69321;SDS011;67799;51.974;4.612;2023-02-28T15:50:00;2.43;;;2.23;;
69321;SDS011;67799;51.974;4.612;2023-02-28T15:52:43;2.72;;;2.33;;
69321;SDS011;67799;51.974;4.612;2023-02-28T15:55:23;2.55;;;2.35;;
69321;SDS011;67799;51.974;4.612;2023-02-28T15:57:56;7.93;;;2.53;;
69321;SDS011;67799;51.974;4.612;2023-02-28T16:00:26;2.38;;;2.00;;
69321;SDS011;67799;51.974;4.612;2023-02-28T16:02:53;3.65;;;2.20;;
69321;SDS011;67799;51.974;4.612;2023-02-28T16:05:27;3.10;;;2.73;;
69321;SDS011;67799;51.974;4.612;2023-02-28T16:08:01;3.10;;;2.57;;
69321;SDS011;67799;51.974;4.612;2023-02-28T16:10:38;2.22;;;2.03;;
69321;SDS011;67799;51.974;4.612;2023-02-28T16:13:05;2.80;;;2.55;;
69321;SDS011;67799;51.974;4.612;2023-02-28T16:15:33;3.00;;;2.53;;
69321;SDS011;67799;51.974;4.612;2023-02-28T16:18:07;3.47;;;2.83;;
69321;SDS011;67799;51.974;4.612;2023-02-28T16:20:35;2.72;;;2.53;;
69321;SDS011;67799;51.974;4.612;2023-02-28T16:23:01;3.10;;;2.40;;
69321;SDS011;67799;51.974;4.612;2023-02-28T16:25:38;3.28;;;2.42;;
69321;SDS011;67799;51.974;4.612;2023-02-28T16:28:12;4.57;;;2.55;;
69321;SDS011;67799;51.974;4.612;2023-02-28T16:30:44;2.00;;;1.80;;
69321;SDS011;67799;51.974;4.612;2023-02-28T16:33:10;4.00;;;3.00;;
69321;SDS011;67799;51.974;4.612;2023-02-28T16:35:36;4.50;;;3.08;;
69321;SDS011;67799;51.974;4.612;2023-02-28T16:38:02;2.78;;;2.45;;
69321;SDS011;67799;51.974;4.612;2023-02-28T16:40:28;3.17;;;2.13;;
69321;SDS011;67799;51.974;4.612;2023-02-28T16:42:59;8.15;;;2.65;;
69321;SDS011;67799;51.974;4.612;2023-02-28T16:45:29;3.88;;;2.72;;
69321;SDS011;67799;51.974;4.612;2023-02-28T16:47:55;2.93;;;2.50;;
69321;SDS011;67799;51.974;4.612;2023-02-28T16:50:25;5.10;;;2.38;;
69321;SDS011;67799;51.974;4.612;2023-02-28T16:52:53;3.65;;;2.20;;
69321;SDS011;67799;51.974;4.612;2023-02-28T16:55:20;2.53;;;2.33;;
69321;SDS011;67799;51.974;4.612;2023-02-28T16:57:51;2.00;;;1.80;;
69321;SDS011;67799;51.974;4.612;2023-02-28T17:00:21;3.33;;;2.80;;
69321;SDS011;67799;51.974;4.612;2023-02-28T17:02:48;3.17;;;2.55;;
69321;SDS011;67799;51.974;4.612;2023-02-28T17:05:14;3.33;;;2.63;;
69321;SDS011;67799;51.974;4.612;2023-02-28T17:07:40;9.38;;;2.63;;
69321;SDS011;67799;51.974;4.612;2023-02-28T17:12:36;3.23;;;2.73;;
69321;SDS011;67799;51.974;4.612;2023-02-28T17:15:02;2.83;;;2.50;;
69321;SDS011;67799;51.974;4.612;2023-02-28T17:17:28;2.42;;;2.13;;
69321;SDS011;67799;51.974;4.612;2023-02-28T17:19:55;4.17;;;2.13;;
69321;SDS011;67799;51.974;4.612;2023-02-28T17:22:21;3.78;;;2.55;;
69321;SDS011;67799;51.974;4.612;2023-02-28T17:24:47;6.47;;;2.92;;
69321;SDS011;67799;51.974;4.612;2023-02-28T17:27:12;2.20;;;2.00;;
69321;SDS011;67799;51.974;4.612;2023-02-28T17:29:38;3.65;;;2.42;;
69321;SDS011;67799;51.974;4.612;2023-02-28T17:32:04;3.23;;;2.73;;
69321;SDS011;67799;51.974;4.612;2023-02-28T17:34:30;2.30;;;2.10;;
69321;SDS011;67799;51.974;4.612;2023-02-28T17:36:56;3.15;;;2.33;;
69321;SDS011;67799;51.974;4.612;2023-02-28T17:39:22;4.07;;;2.93;;
69321;SDS011;67799;51.974;4.612;2023-02-28T17:41:54;2.08;;;1.88;;
69321;SDS011;67799;51.974;4.612;2023-02-28T17:44:21;2.85;;;2.65;;
69321;SDS011;67799;51.974;4.612;2023-02-28T17:46:48;2.42;;;2.22;;
69321;SDS011;67799;51.974;4.612;2023-02-28T17:49:15;3.47;;;2.77;;
69321;SDS011;67799;51.974;4.612;2023-02-28T17:51:42;2.80;;;2.30;;
69321;SDS011;67799;51.974;4.612;2023-02-28T17:54:08;2.42;;;2.08;;
69321;SDS011;67799;51.974;4.612;2023-02-28T17:56:34;2.47;;;2.03;;
69321;SDS011;67799;51.974;4.612;2023-02-28T17:59:00;3.47;;;2.25;;
69321;SDS011;67799;51.974;4.612;2023-02-28T18:01:26;2.78;;;2.20;;
69321;SDS011;67799;51.974;4.612;2023-02-28T18:03:52;4.43;;;2.20;;
69321;SDS011;67799;51.974;4.612;2023-02-28T18:06:21;2.97;;;2.47;;
69321;SDS011;67799;51.974;4.612;2023-02-28T18:08:49;3.03;;;2.10;;
69321;SDS011;67799;51.974;4.612;2023-02-28T18:11:17;3.23;;;2.77;;
69321;SDS011;67799;51.974;4.612;2023-02-28T18:13:44;4.60;;;2.47;;
69321;SDS011;67799;51.974;4.612;2023-02-28T18:16:14;2.50;;;2.20;;
69321;SDS011;67799;51.974;4.612;2023-02-28T18:18:41;3.03;;;2.72;;
69321;SDS011;67799;51.974;4.612;2023-02-28T18:21:10;3.30;;;2.50;;
69321;SDS011;67799;51.974;4.612;2023-02-28T18:23:37;2.63;;;2.40;;
69321;SDS011;67799;51.974;4.612;2023-02-28T18:26:09;3.75;;;2.97;;
69321;SDS011;67799;51.974;4.612;2023-02-28T18:28:35;3.00;;;2.37;;
69321;SDS011;67799;51.974;4.612;2023-02-28T18:31:05;3.72;;;2.88;;
69321;SDS011;67799;51.974;4.612;2023-02-28T18:33:31;2.53;;;2.33;;
69321;SDS011;67799;51.974;4.612;2023-02-28T18:35:57;3.27;;;2.57;;
69321;SDS011;67799;51.974;4.612;2023-02-28T18:38:23;3.80;;;2.70;;
69321;SDS011;67799;51.974;4.612;2023-02-28T18:40:51;3.70;;;2.88;;
69321;SDS011;67799;51.974;4.612;2023-02-28T18:43:21;3.53;;;2.63;;
69321;SDS011;67799;51.974;4.612;2023-02-28T18:45:48;2.90;;;2.45;;
69321;SDS011;67799;51.974;4.612;2023-02-28T18:48:13;2.78;;;2.50;;
69321;SDS011;67799;51.974;4.612;2023-02-28T18:50:40;4.70;;;2.77;;
69321;SDS011;67799;51.974;4.612;2023-02-28T18:53:06;4.53;;;2.97;;
69321;SDS011;67799;51.974;4.612;2023-02-28T18:55:32;6.90;;;2.65;;
69321;SDS011;67799;51.974;4.612;2023-02-28T18:57:59;3.83;;;2.40;;
69321;SDS011;67799;51.974;4.612;2023-02-28T19:00:25;3.72;;;2.60;;
69321;SDS011;67799;51.974;4.612;2023-02-28T19:02:51;4.20;;;2.97;;
69321;SDS011;67799;51.974;4.612;2023-02-28T19:05:18;2.80;;;2.20;;
69321;SDS011;67799;51.974;4.612;2023-02-28T19:07:44;3.75;;;2.53;;
69321;SDS011;67799;51.974;4.612;2023-02-28T19:10:10;3.40;;;2.45;;
69321;SDS011;67799;51.974;4.612;2023-02-28T19:12:38;2.80;;;2.50;;
69321;SDS011;67799;51.974;4.612;2023-02-28T19:15:04;4.63;;;3.13;;
69321;SDS011;67799;51.974;4.612;2023-02-28T19:17:31;3.72;;;3.03;;
69321;SDS011;67799;51.974;4.612;2023-02-28T19:19:57;3.45;;;2.70;;
69321;SDS011;67799;51.974;4.612;2023-02-28T19:22:24;3.93;;;2.90;;
69321;SDS011;67799;51.974;4.612;2023-02-28T19:24:50;3.75;;;2.92;;
69321;SDS011;67799;51.974;4.612;2023-02-28T19:27:17;3.38;;;2.80;;
69321;SDS011;67799;51.974;4.612;2023-02-28T19:29:46;3.70;;;3.30;;
69321;SDS011;67799;51.974;4.612;2023-02-28T19:32:14;3.95;;;3.03;;
69321;SDS011;67799;51.974;4.612;2023-02-28T19:34:40;4.95;;;2.88;;
69321;SDS011;67799;51.974;4.612;2023-02-28T19:37:07;3.92;;;3.20;;
69321;SDS011;67799;51.974;4.612;2023-02-28T19:39:34;3.67;;;2.63;;
69321;SDS011;67799;51.974;4.612;2023-02-28T19:42:09;5.43;;;4.03;;
69321;SDS011;67799;51.974;4.612;2023-02-28T19:44:39;3.25;;;2.80;;
69321;SDS011;67799;51.974;4.612;2023-02-28T19:47:06;2.80;;;2.37;;
69321;SDS011;67799;51.974;4.612;2023-02-28T19:49:32;3.45;;;2.78;;
69321;SDS011;67799;51.974;4.612;2023-02-28T19:51:58;2.85;;;2.55;;
69321;SDS011;67799;51.974;4.612;2023-02-28T19:54:24;4.43;;;3.10;;
69321;SDS011;67799;51.974;4.612;2023-02-28T19:56:51;4.18;;;3.35;;
69321;SDS011;67799;51.974;4.612;2023-02-28T19:59:24;9.63;;;2.85;;
69321;SDS011;67799;51.974;4.612;2023-02-28T20:01:51;4.87;;;2.77;;
69321;SDS011;67799;51.974;4.612;2023-02-28T20:04:21;7.03;;;3.22;;
69321;SDS011;67799;51.974;4.612;2023-02-28T20:06:48;3.22;;;2.55;;
69321;SDS011;67799;51.974;4.612;2023-02-28T20:09:14;4.57;;;2.92;;
69321;SDS011;67799;51.974;4.612;2023-02-28T20:11:41;6.33;;;3.27;;
69321;SDS011;67799;51.974;4.612;2023-02-28T20:14:08;3.13;;;2.75;;
69321;SDS011;67799;51.974;4.612;2023-02-28T20:16:34;3.17;;;2.88;;
69321;SDS011;67799;51.974;4.612;2023-02-28T20:19:00;3.33;;;2.60;;
69321;SDS011;67799;51.974;4.612;2023-02-28T20:21:26;3.88;;;2.65;;
69321;SDS011;67799;51.974;4.612;2023-02-28T20:23:52;3.72;;;2.70;;
69321;SDS011;67799;51.974;4.612;2023-02-28T20:26:18;4.83;;;2.90;;
69321;SDS011;67799;51.974;4.612;2023-02-28T20:28:44;4.53;;;2.97;;
69321;SDS011;67799;51.974;4.612;2023-02-28T20:31:15;4.22;;;3.35;;
69321;SDS011;67799;51.974;4.612;2023-02-28T20:33:47;4.93;;;2.60;;
69321;SDS011;67799;51.974;4.612;2023-02-28T20:36:15;6.25;;;3.78;;
69321;SDS011;67799;51.974;4.612;2023-02-28T20:38:43;3.10;;;2.80;;
69321;SDS011;67799;51.974;4.612;2023-02-28T20:41:10;3.90;;;3.33;;
69321;SDS011;67799;51.974;4.612;2023-02-28T20:43:37;4.80;;;3.45;;
69321;SDS011;67799;51.974;4.612;2023-02-28T20:46:03;4.18;;;3.17;;
69321;SDS011;67799;51.974;4.612;2023-02-28T20:48:30;6.40;;;4.45;;
69321;SDS011;67799;51.974;4.612;2023-02-28T20:50:57;5.23;;;3.83;;
69321;SDS011;67799;51.974;4.612;2023-02-28T20:53:24;7.40;;;4.72;;
69321;SDS011;67799;51.974;4.612;2023-02-28T20:55:52;5.97;;;4.00;;
69321;SDS011;67799;51.974;4.612;2023-02-28T20:58:27;4.03;;;3.00;;
69321;SDS011;67799;51.974;4.612;2023-02-28T21:01:07;5.05;;;3.75;;
69321;SDS011;67799;51.974;4.612;2023-02-28T21:03:40;5.68;;;4.03;;
69321;SDS011;67799;51.974;4.612;2023-02-28T21:06:14;8.93;;;3.20;;
69321;SDS011;67799;51.974;4.612;2023-02-28T21:08:41;6.18;;;3.45;;
69321;SDS011;67799;51.974;4.612;2023-02-28T21:11:09;3.45;;;3.08;;
69321;SDS011;67799;51.974;4.612;2023-02-28T21:13:47;8.02;;;5.25;;
69321;SDS011;67799;51.974;4.612;2023-02-28T21:16:16;5.13;;;3.17;;
69321;SDS011;67799;51.974;4.612;2023-02-28T21:18:44;7.93;;;3.65;;
69321;SDS011;67799;51.974;4.612;2023-02-28T21:21:15;5.38;;;4.15;;
69321;SDS011;67799;51.974;4.612;2023-02-28T21:23:43;8.93;;;4.13;;
69321;SDS011;67799;51.974;4.612;2023-02-28T21:26:11;4.55;;;3.38;;
69321;SDS011;67799;51.974;4.612;2023-02-28T21:28:39;6.40;;;4.28;;
69321;SDS011;67799;51.974;4.612;2023-02-28T21:31:12;7.30;;;3.83;;
69321;SDS011;67799;51.974;4.612;2023-02-28T21:33:39;5.75;;;3.53;;
69321;SDS011;67799;51.974;4.612;2023-02-28T21:36:07;6.40;;;3.97;;
69321;SDS011;67799;51.974;4.612;2023-02-28T21:38:35;7.55;;;4.18;;
69321;SDS011;67799;51.974;4.612;2023-02-28T21:41:03;4.83;;;3.17;;
69321;SDS011;67799;51.974;4.612;2023-02-28T21:43:32;5.25;;;3.55;;
69321;SDS011;67799;51.974;4.612;2023-02-28T21:46:02;5.32;;;3.17;;
69321;SDS011;67799;51.974;4.612;2023-02-28T21:48:29;5.63;;;3.60;;
69321;SDS011;67799;51.974;4.612;2023-02-28T21:51:03;4.43;;;2.95;;
69321;SDS011;67799;51.974;4.612;2023-02-28T21:53:32;4.05;;;3.65;;
69321;SDS011;67799;51.974;4.612;2023-02-28T21:56:03;4.47;;;3.47;;
69321;SDS011;67799;51.974;4.612;2023-02-28T21:58:31;4.68;;;3.65;;
69321;SDS011;67799;51.974;4.612;2023-02-28T22:01:08;4.85;;;3.13;;
69321;SDS011;67799;51.974;4.612;2023-02-28T22:03:38;9.02;;;4.50;;
69321;SDS011;67799;51.974;4.612;2023-02-28T22:06:18;6.03;;;3.70;;
69321;SDS011;67799;51.974;4.612;2023-02-28T22:08:47;6.80;;;3.38;;
69321;SDS011;67799;51.974;4.612;2023-02-28T22:11:14;7.43;;;4.03;;
69321;SDS011;67799;51.974;4.612;2023-02-28T22:13:41;6.47;;;4.17;;
69321;SDS011;67799;51.974;4.612;2023-02-28T22:16:18;4.90;;;3.58;;
69321;SDS011;67799;51.974;4.612;2023-02-28T22:18:45;7.25;;;4.45;;
69321;SDS011;67799;51.974;4.612;2023-02-28T22:21:11;6.17;;;3.67;;
69321;SDS011;67799;51.974;4.612;2023-02-28T22:23:38;5.03;;;3.35;;
69321;SDS011;67799;51.974;4.612;2023-02-28T22:26:07;5.53;;;3.78;;
69321;SDS011;67799;51.974;4.612;2023-02-28T22:28:34;6.95;;;4.10;;
69321;SDS011;67799;51.974;4.612;2023-02-28T22:31:03;6.70;;;4.30;;
69321;SDS011;67799;51.974;4.612;2023-02-28T22:33:42;5.63;;;4.03;;
69321;SDS011;67799;51.974;4.612;2023-02-28T22:36:09;4.10;;;3.53;;
69321;SDS011;67799;51.974;4.612;2023-02-28T22:38:36;7.17;;;3.40;;
69321;SDS011;67799;51.974;4.612;2023-02-28T22:41:02;5.13;;;3.72;;
69321;SDS011;67799;51.974;4.612;2023-02-28T22:43:29;6.65;;;3.72;;
69321;SDS011;67799;51.974;4.612;2023-02-28T22:45:56;6.70;;;4.07;;
69321;SDS011;67799;51.974;4.612;2023-02-28T22:48:26;5.57;;;4.15;;
69321;SDS011;67799;51.974;4.612;2023-02-28T22:50:59;3.83;;;3.25;;
69321;SDS011;67799;51.974;4.612;2023-02-28T22:53:28;7.97;;;4.13;;
69321;SDS011;67799;51.974;4.612;2023-02-28T22:55:55;6.03;;;4.40;;
69321;SDS011;67799;51.974;4.612;2023-02-28T22:58:21;9.98;;;4.53;;
69321;SDS011;67799;51.974;4.612;2023-02-28T23:00:47;5.27;;;3.60;;
69321;SDS011;67799;51.974;4.612;2023-02-28T23:03:13;5.10;;;3.50;;
69321;SDS011;67799;51.974;4.612;2023-02-28T23:05:39;6.80;;;4.43;;
69321;SDS011;67799;51.974;4.612;2023-02-28T23:08:05;5.85;;;4.13;;
69321;SDS011;67799;51.974;4.612;2023-02-28T23:10:30;5.63;;;3.37;;
69321;SDS011;67799;51.974;4.612;2023-02-28T23:12:57;5.80;;;3.30;;
69321;SDS011;67799;51.974;4.612;2023-02-28T23:15:24;5.68;;;3.63;;
69321;SDS011;67799;51.974;4.612;2023-02-28T23:17:50;6.13;;;4.20;;
69321;SDS011;67799;51.974;4.612;2023-02-28T23:20:18;8.35;;;5.22;;
69321;SDS011;67799;51.974;4.612;2023-02-28T23:22:45;10.90;;;4.90;;
69321;SDS011;67799;51.974;4.612;2023-02-28T23:25:18;6.60;;;4.13;;
69321;SDS011;67799;51.974;4.612;2023-02-28T23:27:45;5.65;;;3.47;;
69321;SDS011;67799;51.974;4.612;2023-02-28T23:30:12;8.38;;;4.20;;
69321;SDS011;67799;51.974;4.612;2023-02-28T23:32:39;8.63;;;5.43;;
69321;SDS011;67799;51.974;4.612;2023-02-28T23:35:06;5.38;;;4.07;;
69321;SDS011;67799;51.974;4.612;2023-02-28T23:37:33;8.60;;;5.60;;
69321;SDS011;67799;51.974;4.612;2023-02-28T23:40:04;8.10;;;6.78;;
69321;SDS011;67799;51.974;4.612;2023-02-28T23:42:32;5.37;;;4.07;;
69321;SDS011;67799;51.974;4.612;2023-02-28T23:44:59;6.70;;;4.30;;
69321;SDS011;67799;51.974;4.612;2023-02-28T23:47:25;8.60;;;4.53;;
69321;SDS011;67799;51.974;4.612;2023-02-28T23:49:51;8.47;;;4.20;;
69321;SDS011;67799;51.974;4.612;2023-02-28T23:52:19;7.25;;;3.80;;
69321;SDS011;67799;51.974;4.612;2023-02-28T23:54:46;13.73;;;5.35;;
69321;SDS011;67799;51.974;4.612;2023-02-28T23:57:12;5.00;;;3.97;;
69321;SDS011;67799;51.974;4.612;2023-02-28T23:59:37;5.55;;;3.60;;
